Time;durP1;ratioP1;P1;durP2;ratioP2;P2;SDS_P1;SDS_P2;PMS_P1;PMS_P2;Temp;Humidity;BMP_temperature;BMP_pressure;BME280_temperature;BME280_humidity;BME280_pressure;Samples;Min_cycle;Max_cycle;Signal;HPM_P1;HPM_P2
2021/01/31 00:00:19;;;;;;;15.82;5.90;;;-1.00;99.90;;;;;;5080538;28;20024;-78
2021/01/31 00:02:45;;;;;;;11.93;6.00;;;-1.00;99.90;;;;;;5094002;28;20028;-78
2021/01/31 00:05:11;;;;;;;16.02;5.75;;;-1.20;99.90;;;;;;5093528;28;20391;-78
2021/01/31 00:07:37;;;;;;;10.30;5.05;;;-1.30;99.90;;;;;;5094048;28;20026;-78
2021/01/31 00:10:04;;;;;;;13.00;5.40;;;-1.30;99.90;;;;;;5090111;28;20024;-78
2021/01/31 00:12:30;;;;;;;9.93;5.03;;;-1.30;99.90;;;;;;5072209;28;20488;-78
2021/01/31 00:14:56;;;;;;;13.45;5.05;;;-1.40;99.90;;;;;;5072009;28;20120;-78
2021/01/31 00:17:21;;;;;;;11.40;4.75;;;-1.50;99.90;;;;;;5072364;28;20025;-77
2021/01/31 00:19:47;;;;;;;12.90;5.38;;;-1.50;99.90;;;;;;5079263;28;20437;-77
2021/01/31 00:22:12;;;;;;;7.57;4.50;;;-1.40;99.90;;;;;;5093729;28;20473;-77
2021/01/31 00:24:38;;;;;;;16.88;5.13;;;-1.40;99.90;;;;;;5093372;28;20054;-77
2021/01/31 00:27:04;;;;;;;11.23;5.28;;;-1.40;99.90;;;;;;5093445;28;20042;-77
2021/01/31 00:29:29;;;;;;;9.60;5.15;;;-1.30;99.90;;;;;;5088948;28;20393;-77
2021/01/31 00:31:55;;;;;;;14.40;4.78;;;-1.20;99.90;;;;;;5073264;28;20033;-77
2021/01/31 00:34:21;;;;;;;10.32;4.97;;;-1.10;99.90;;;;;;5072785;28;20104;-77
2021/01/31 00:36:47;;;;;;;14.90;5.03;;;-1.00;99.90;;;;;;5073155;28;20039;-78
2021/01/31 00:39:13;;;;;;;8.30;4.88;;;-0.80;99.90;;;;;;5073077;28;20029;-78
2021/01/31 00:41:39;;;;;;;9.98;5.22;;;-0.80;99.90;;;;;;5089830;28;20392;-77
2021/01/31 00:44:07;;;;;;;12.98;5.28;;;-0.70;99.90;;;;;;5093083;28;20016;-78
2021/01/31 00:46:35;;;;;;;12.52;4.53;;;-0.70;99.90;;;;;;5093221;28;20016;-77
2021/01/31 00:49:00;;;;;;;13.70;4.35;;;-0.60;99.90;;;;;;5090836;28;20085;-78
2021/01/31 00:51:26;;;;;;;9.70;4.57;;;-0.50;99.90;;;;;;5072952;28;20103;-78
2021/01/31 00:53:52;;;;;;;10.07;4.53;;;-0.50;99.90;;;;;;5071330;28;20029;-77
2021/01/31 00:56:17;;;;;;;8.77;4.32;;;-0.40;99.90;;;;;;5072690;28;20063;-77
2021/01/31 00:58:46;;;;;;;10.32;4.40;;;-0.40;99.90;;;;;;5072733;28;20460;-78
2021/01/31 01:01:14;;;;;;;13.20;4.43;;;-0.40;99.90;;;;;;5088639;28;20035;-77
2021/01/31 01:03:40;;;;;;;8.57;4.57;;;-0.40;99.90;;;;;;5092581;28;20046;-78
2021/01/31 01:06:06;;;;;;;11.63;4.45;;;-0.40;99.90;;;;;;5092524;28;20024;-78
2021/01/31 01:08:31;;;;;;;9.77;4.63;;;-0.30;99.90;;;;;;5092851;28;20561;-78
2021/01/31 01:10:57;;;;;;;13.85;4.95;;;-0.30;99.90;;;;;;5081110;28;20047;-77
2021/01/31 01:13:23;;;;;;;20.95;5.68;;;-0.20;99.90;;;;;;5072347;28;20076;-77
2021/01/31 01:15:49;;;;;;;8.90;3.33;;;-0.10;99.90;;;;;;5071026;28;20043;-78
2021/01/31 01:18:14;;;;;;;14.82;4.65;;;0.00;99.90;;;;;;5072343;28;20451;-77
2021/01/31 01:20:40;;;;;;;9.98;3.63;;;0.10;99.90;;;;;;5085429;28;20029;-77
2021/01/31 01:23:05;;;;;;;18.10;4.57;;;0.10;99.90;;;;;;5092497;28;20061;-78
2021/01/31 01:25:31;;;;;;;10.88;4.20;;;0.20;99.90;;;;;;5092334;28;20469;-78
2021/01/31 01:27:57;;;;;;;8.57;4.78;;;0.20;99.90;;;;;;5092416;28;20030;-78
2021/01/31 01:30:25;;;;;;;8.45;4.47;;;0.30;99.90;;;;;;5081665;28;20040;-77
2021/01/31 01:32:52;;;;;;;19.05;4.28;;;0.30;99.90;;;;;;5085674;28;20024;-78
2021/01/31 01:35:18;;;;;;;9.13;4.82;;;0.30;99.90;;;;;;5080270;28;20032;-78
2021/01/31 01:37:43;;;;;;;14.10;5.32;;;0.40;99.90;;;;;;5072134;28;20435;-78
2021/01/31 01:40:19;;;;;;;13.18;5.20;;;0.40;99.90;;;;;;5075106;28;20024;-78
2021/01/31 01:42:44;;;;;;;12.70;5.15;;;0.40;99.90;;;;;;5090847;28;20019;-78
2021/01/31 01:45:10;;;;;;;11.18;4.80;;;0.50;99.90;;;;;;5091861;28;20028;-78
2021/01/31 01:47:37;;;;;;;9.13;4.35;;;0.40;99.90;;;;;;5090978;28;20020;-78
2021/01/31 01:50:20;;;;;;;12.98;4.97;;;0.50;99.90;;;;;;5081283;28;20511;-78
2021/01/31 01:52:46;;;;;;;15.48;4.47;;;0.50;99.90;;;;;;5071903;28;20028;-78
2021/01/31 01:55:14;;;;;;;10.73;4.50;;;0.50;99.90;;;;;;5071623;28;20116;-78
2021/01/31 01:57:51;;;;;;;11.43;4.38;;;0.50;99.90;;;;;;5071486;28;20035;-78
2021/01/31 02:00:18;;;;;;;17.55;4.07;;;0.40;99.90;;;;;;5080009;28;20039;-78
2021/01/31 02:02:51;;;;;;;12.15;3.60;;;0.40;99.90;;;;;;5092009;28;20151;-78
2021/01/31 02:05:17;;;;;;;9.50;3.67;;;0.40;99.90;;;;;;5091503;28;20063;-78
2021/01/31 02:07:45;;;;;;;7.13;3.40;;;0.40;99.90;;;;;;5091998;28;20129;-78
2021/01/31 02:10:15;;;;;;;11.80;4.20;;;0.60;99.90;;;;;;5086886;28;20029;-78
2021/01/31 02:12:41;;;;;;;13.45;3.25;;;0.70;99.90;;;;;;5071676;28;20024;-78
2021/01/31 02:15:09;;;;;;;12.63;3.83;;;0.70;99.90;;;;;;5071320;28;20037;-78
2021/01/31 02:18:04;;;;;;;14.40;3.67;;;0.70;99.90;;;;;;5070415;28;20158;-78
2021/01/31 02:20:54;;;;;;;11.57;3.75;;;0.70;99.90;;;;;;5084078;28;20032;-78
2021/01/31 02:23:51;;;;;;;9.43;3.10;;;0.80;99.90;;;;;;5091324;28;20060;-78
2021/01/31 02:26:53;;;;;;;14.82;3.72;;;0.70;99.90;;;;;;5091800;28;20480;-78
2021/01/31 02:29:56;;;;;;;12.13;3.45;;;0.70;99.90;;;;;;5091325;28;20036;-78
2021/01/31 02:32:33;;;;;;;9.38;3.47;;;0.70;99.90;;;;;;5071579;28;20028;-78
2021/01/31 02:35:07;;;;;;;12.80;4.35;;;0.70;99.90;;;;;;5071183;28;20107;-78
2021/01/31 02:37:56;;;;;;;13.18;3.88;;;0.70;99.90;;;;;;5071471;28;20028;-78
2021/01/31 02:40:29;;;;;;;14.82;3.92;;;0.60;99.90;;;;;;5075942;28;20028;-78
2021/01/31 02:43:11;;;;;;;15.10;4.50;;;0.60;99.90;;;;;;5090409;28;20025;-78
2021/01/31 02:45:49;;;;;;;12.65;3.83;;;0.50;99.90;;;;;;5090064;28;20397;-78
2021/01/31 02:48:26;;;;;;;19.13;3.83;;;0.40;99.90;;;;;;5091627;28;20024;-78
2021/01/31 02:51:06;;;;;;;7.85;3.70;;;0.30;99.90;;;;;;5089832;28;20028;-78
2021/01/31 02:53:39;;;;;;;8.70;3.25;;;0.20;99.90;;;;;;5092764;28;20035;-78
2021/01/31 02:56:08;;;;;;;14.73;4.68;;;0.10;99.90;;;;;;5095357;28;20024;-78
2021/01/31 02:58:43;;;;;;;12.13;4.38;;;0.00;99.90;;;;;;5094094;28;20122;-78
2021/01/31 03:01:17;;;;;;;30.27;5.55;;;0.10;99.90;;;;;;5095303;28;20174;-78
2021/01/31 03:03:58;;;;;;;14.13;4.53;;;0.20;99.90;;;;;;5081848;28;20113;-77
2021/01/31 03:06:28;;;;;;;22.00;4.15;;;0.20;99.90;;;;;;5073695;28;20055;-78
2021/01/31 03:09:00;;;;;;;9.93;3.65;;;0.30;99.90;;;;;;5074926;28;20025;-78
2021/01/31 03:11:37;;;;;;;10.18;3.70;;;0.30;99.90;;;;;;5074850;28;20097;-78
2021/01/31 03:14:10;;;;;;;15.95;3.92;;;0.20;99.90;;;;;;5074625;28;20032;-78
2021/01/31 03:16:38;;;;;;;;;;;0.10;99.90;;;;;;5075223;28;20631;-78
2021/01/31 03:19:14;;;;;;;15.45;3.75;;;0.00;99.90;;;;;;5075581;28;19909;-78
2021/01/31 03:21:44;;;;;;;15.30;3.22;;;-0.10;99.90;;;;;;5074632;28;20021;-78
2021/01/31 03:24:14;;;;;;;10.18;2.63;;;0.00;99.90;;;;;;5074437;28;20020;-78
2021/01/31 03:27:11;;;;;;;11.15;3.17;;;0.10;99.90;;;;;;5074661;28;20052;-78
2021/01/31 03:29:37;;;;;;;12.00;2.85;;;0.10;99.90;;;;;;5075315;28;20066;-77
2021/01/31 03:32:09;;;;;;;20.45;3.40;;;0.20;99.90;;;;;;5093520;28;20028;-78
2021/01/31 03:34:49;;;;;;;18.60;3.33;;;0.30;99.90;;;;;;5092261;28;20070;-78
2021/01/31 03:37:15;;;;;;;10.38;3.10;;;0.30;99.90;;;;;;5092318;28;20514;-78
2021/01/31 03:39:44;;;;;;;19.20;3.60;;;0.30;99.90;;;;;;5093055;28;20028;-78
2021/01/31 03:42:11;;;;;;;17.23;3.30;;;0.30;99.90;;;;;;5093357;28;20085;-78
2021/01/31 03:44:42;;;;;;;8.60;2.80;;;0.30;99.90;;;;;;5094449;28;20020;-78
2021/01/31 03:47:14;;;;;;;17.20;3.10;;;0.40;99.90;;;;;;5090942;28;20019;-78
2021/01/31 03:49:48;;;;;;;19.83;3.10;;;0.40;99.90;;;;;;5074160;28;20048;-78
2021/01/31 03:52:14;;;;;;;13.25;3.83;;;0.40;99.90;;;;;;5072823;28;20107;-78
2021/01/31 03:54:39;;;;;;;17.40;2.92;;;0.40;99.90;;;;;;5073839;28;20109;-78
2021/01/31 03:57:20;;;;;;;17.55;2.92;;;0.40;99.90;;;;;;5074086;28;20029;-78
2021/01/31 04:00:14;;;;;;;7.68;2.42;;;0.30;99.90;;;;;;5092906;28;20073;-78
2021/01/31 04:03:07;;;;;;;12.70;2.95;;;0.20;99.90;;;;;;5092496;28;20395;-78
2021/01/31 04:05:35;;;;;;;17.77;2.33;;;0.20;99.90;;;;;;5080353;28;20029;-78
2021/01/31 04:08:04;;;;;;;19.73;2.17;;;0.20;99.90;;;;;;5073874;28;20040;-78
2021/01/31 04:10:30;;;;;;;12.05;1.65;;;0.10;99.90;;;;;;5073807;28;20099;-78
2021/01/31 04:13:00;;;;;;;10.00;1.73;;;0.10;99.90;;;;;;5072351;28;20032;-78
2021/01/31 04:15:28;;;;;;;5.68;1.50;;;0.10;99.90;;;;;;5082371;28;20031;-78
2021/01/31 04:17:54;;;;;;;13.98;1.92;;;0.20;99.90;;;;;;5093925;28;20024;-78
2021/01/31 04:20:20;;;;;;;9.85;2.00;;;0.20;99.90;;;;;;5093384;28;20117;-78
2021/01/31 04:22:45;;;;;;;7.30;1.17;;;0.20;99.90;;;;;;5093742;28;20024;-78
2021/01/31 04:25:11;;;;;;;11.02;2.08;;;0.20;99.90;;;;;;5089054;28;20054;-78
2021/01/31 04:27:37;;;;;;;7.93;1.17;;;0.20;99.90;;;;;;5072142;28;20074;-78
2021/01/31 04:30:07;;;;;;;14.73;2.38;;;0.20;99.90;;;;;;5072135;28;20021;-78
2021/01/31 04:32:33;;;;;;;12.73;2.42;;;0.10;99.90;;;;;;5073277;28;20039;-78
2021/01/31 04:34:59;;;;;;;7.80;1.85;;;0.10;99.90;;;;;;5080274;28;20036;-78
2021/01/31 04:37:24;;;;;;;25.35;1.70;;;0.10;99.90;;;;;;5093542;28;20035;-78
2021/01/31 04:39:50;;;;;;;10.38;2.00;;;0.10;99.90;;;;;;5092119;28;20051;-78
2021/01/31 04:42:18;;;;;;;9.77;2.10;;;0.00;99.90;;;;;;5092110;28;20062;-78
2021/01/31 04:44:44;;;;;;;15.45;2.55;;;-0.10;99.90;;;;;;5088041;28;20021;-78
2021/01/31 04:47:45;;;;;;;13.10;2.00;;;-0.10;99.90;;;;;;5071811;28;20035;-78
2021/01/31 04:50:31;;;;;;;13.48;2.58;;;-0.10;99.90;;;;;;5061113;28;20048;-78
2021/01/31 04:53:12;;;;;;;22.23;3.70;;;-0.10;99.90;;;;;;5072862;28;20039;-78
2021/01/31 04:55:49;;;;;;;15.27;2.03;;;0.10;99.90;;;;;;5080697;28;20388;-78
2021/01/31 04:58:18;;;;;;;23.70;2.15;;;0.30;99.90;;;;;;5093087;28;20030;-78
2021/01/31 05:01:06;;;;;;;9.07;2.25;;;0.40;99.90;;;;;;5093033;28;20365;-78
2021/01/31 05:03:37;;;;;;;9.57;1.88;;;0.30;99.90;;;;;;5092934;28;20066;-78
2021/01/31 05:06:09;;;;;;;6.03;1.77;;;0.20;99.90;;;;;;5074910;28;20481;-78
2021/01/31 05:08:34;;;;;;;11.93;1.90;;;0.00;99.90;;;;;;5071431;28;20400;-78
2021/01/31 05:11:09;;;;;;;14.05;2.85;;;-0.20;99.90;;;;;;5072592;28;20086;-78
2021/01/31 05:13:43;;;;;;;9.02;2.30;;;-0.40;99.90;;;;;;5072482;28;20021;-78
2021/01/31 05:16:14;;;;;;;16.15;1.90;;;-0.30;99.90;;;;;;5086525;28;20512;-78
2021/01/31 05:19:14;;;;;;;23.42;2.00;;;-0.20;99.90;;;;;;5092681;28;20103;-78
2021/01/31 05:21:41;;;;;;;13.02;1.52;;;-0.20;99.90;;;;;;5088269;28;20131;-78
2021/01/31 05:24:14;;;;;;;19.35;2.67;;;-0.30;99.90;;;;;;5092390;28;20022;-78
2021/01/31 05:26:43;;;;;;;11.32;1.70;;;-0.40;99.90;;;;;;5075487;28;20031;-78
2021/01/31 05:29:25;;;;;;;29.20;2.20;;;-0.40;99.90;;;;;;5072271;28;20029;-78
2021/01/31 05:32:03;;;;;;;14.32;3.53;;;-0.50;99.90;;;;;;5072319;28;20021;-78
2021/01/31 05:34:45;;;;;;;23.77;3.28;;;-0.60;99.90;;;;;;5074787;28;20069;-78
2021/01/31 05:37:15;;;;;;;19.90;1.70;;;-0.70;99.90;;;;;;5092466;28;20024;-78
2021/01/31 05:39:46;;;;;;;24.02;3.33;;;-0.70;99.90;;;;;;5091020;28;20081;-78
2021/01/31 05:42:21;;;;;;;17.45;2.13;;;-0.70;99.90;;;;;;5091155;28;20020;-78
2021/01/31 05:45:12;;;;;;;9.93;1.40;;;-0.70;99.90;;;;;;5087751;28;20020;-78
2021/01/31 05:47:41;;;;;;;8.38;1.50;;;-0.80;99.90;;;;;;5070816;28;20499;-78
2021/01/31 05:50:21;;;;;;;11.43;1.30;;;-0.90;99.90;;;;;;5071967;28;20043;-78
2021/01/31 05:52:47;;;;;;;7.07;1.38;;;-1.00;99.90;;;;;;5070800;28;20435;-78
2021/01/31 05:55:23;;;;;;;12.13;1.42;;;-1.10;99.90;;;;;;5076011;28;20036;-78
2021/01/31 05:57:48;;;;;;;18.15;2.45;;;-1.30;99.90;;;;;;5092142;28;20039;-78
2021/01/31 06:00:32;;;;;;;16.80;1.70;;;-1.30;99.90;;;;;;5091975;28;20024;-78
2021/01/31 06:02:59;;;;;;;;;;;-1.50;99.90;;;;;;5092394;28;20050;-78
2021/01/31 06:05:24;;;;;;;14.85;1.63;;;-1.50;99.90;;;;;;5079617;28;20541;-78
2021/01/31 06:08:05;;;;;;;12.70;1.30;;;-1.60;99.90;;;;;;5071777;28;20116;-78
2021/01/31 06:10:33;;;;;;;10.43;1.45;;;-1.80;99.90;;;;;;5071728;28;20024;-78
2021/01/31 06:13:10;;;;;;;13.63;1.92;;;-1.80;99.90;;;;;;5070415;28;20032;-78
2021/01/31 06:15:41;;;;;;;14.82;1.52;;;-1.90;99.90;;;;;;5081772;28;20039;-78
2021/01/31 06:18:14;;;;;;;16.35;1.88;;;-1.90;99.90;;;;;;5090313;28;20036;-77
2021/01/31 06:20:42;;;;;;;12.88;1.95;;;-2.00;99.90;;;;;;5090218;28;20035;-78
2021/01/31 06:23:18;;;;;;;14.60;2.13;;;-2.00;99.90;;;;;;5091795;28;20028;-78
2021/01/31 06:25:44;;;;;;;9.13;1.38;;;-2.00;99.90;;;;;;5082648;28;20028;-78
2021/01/31 06:28:09;;;;;;;13.55;2.00;;;-1.90;99.90;;;;;;5074197;28;20104;-78
2021/01/31 06:30:51;;;;;;;9.07;1.95;;;-1.90;99.90;;;;;;5074349;28;20435;-77
2021/01/31 06:33:17;;;;;;;13.02;1.60;;;-1.80;99.90;;;;;;5075648;28;20108;-78
2021/01/31 06:35:43;;;;;;;14.85;2.25;;;-1.70;99.90;;;;;;5089626;28;20089;-78
2021/01/31 06:38:38;;;;;;;22.05;2.10;;;-1.70;99.90;;;;;;5095839;28;20447;-78
2021/01/31 06:41:27;;;;;;;17.65;1.70;;;-1.60;99.90;;;;;;5095629;28;20028;-78
2021/01/31 06:44:11;;;;;;;27.63;2.15;;;-1.70;99.90;;;;;;5094364;28;20020;-78
2021/01/31 06:46:48;;;;;;;13.10;1.65;;;-1.80;99.90;;;;;;5076326;28;20385;-78
2021/01/31 06:49:40;;;;;;;14.05;2.28;;;-1.90;99.90;;;;;;5075168;28;20053;-78
2021/01/31 06:52:15;;;;;;;18.90;2.30;;;-2.00;99.90;;;;;;5075350;28;20039;-78
2021/01/31 06:54:50;;;;;;;8.05;1.73;;;-2.10;99.90;;;;;;5074998;28;20461;-77
2021/01/31 06:57:46;;;;;;;7.07;1.48;;;-2.20;99.90;;;;;;5083273;28;20399;-78
2021/01/31 07:00:33;;;;;;;23.98;2.00;;;-2.30;99.90;;;;;;5073570;28;20497;-78
2021/01/31 07:03:36;;;;;;;12.45;1.77;;;-2.20;99.90;;;;;;5106833;22;20405;-90
2021/01/31 07:09:35;;;;;;;13.93;1.73;;;-2.00;99.90;;;;;;5076833;28;20044;-90
2021/01/31 07:12:37;;;;;;;23.08;2.03;;;-1.80;99.90;;;;;;5075211;28;20021;-89
2021/01/31 07:15:12;;;;;;;13.85;2.42;;;-1.60;99.90;;;;;;5069340;28;20059;-88
2021/01/31 07:18:22;;;;;;;22.45;2.50;;;-1.70;99.90;;;;;;5055761;28;20112;-89
2021/01/31 07:20:56;;;;;;;10.45;1.50;;;-1.70;99.90;;;;;;4995765;28;20089;-89
2021/01/31 07:23:35;;;;;;;10.38;2.15;;;-1.80;99.90;;;;;;5049725;28;20489;-89
2021/01/31 07:26:32;;;;;;;14.18;1.58;;;-1.90;99.90;;;;;;5055258;28;20043;-89
2021/01/31 07:29:05;;;;;;;20.27;1.83;;;-2.00;99.90;;;;;;5040748;28;20025;-88
2021/01/31 07:31:45;;;;;;;8.60;1.40;;;-2.00;99.90;;;;;;5076089;28;20027;-89
2021/01/31 07:34:25;;;;;;;21.10;2.10;;;-2.00;99.90;;;;;;5075622;28;20374;-89
2021/01/31 07:37:08;;;;;;;12.85;2.17;;;-2.10;99.90;;;;;;5054960;28;20566;-89
2021/01/31 07:39:53;;;;;;;20.20;2.08;;;-2.10;99.90;;;;;;5054018;28;20033;-89
2021/01/31 07:42:20;;;;;;;19.75;2.13;;;-2.20;99.90;;;;;;5055021;28;20024;-89
2021/01/31 07:44:46;;;;;;;7.18;1.48;;;-2.30;99.90;;;;;;5059021;28;20103;-88
2021/01/31 07:47:12;;;;;;;14.77;2.17;;;-2.30;99.90;;;;;;5074649;28;20146;-87
2021/01/31 07:49:56;;;;;;;10.35;1.98;;;-2.30;99.90;;;;;;5074461;28;20028;-89
2021/01/31 07:52:46;;;;;;;18.50;2.92;;;-2.40;99.90;;;;;;5074649;28;20416;-89
2021/01/31 07:55:18;;;;;;;15.40;1.88;;;-2.40;99.90;;;;;;5071525;28;20024;-87
2021/01/31 07:58:44;;;;;;;13.15;1.98;;;-2.30;99.90;;;;;;5055813;28;20507;-87
2021/01/31 08:01:34;;;;;;;10.90;2.35;;;-2.20;99.90;;;;;;5034595;28;20123;-89
2021/01/31 08:04:44;;;;;;;12.82;1.67;;;-2.00;99.90;;;;;;5093040;28;20048;-88
2021/01/31 08:07:57;;;;;;;22.98;3.40;;;-1.90;99.90;;;;;;5054361;28;20070;-87
2021/01/31 08:10:49;;;;;;;10.43;1.85;;;-1.90;99.90;;;;;;5055052;28;20060;-89
2021/01/31 08:13:42;;;;;;;11.27;2.33;;;-1.70;99.90;;;;;;5062869;28;20035;-89
2021/01/31 08:16:47;;;;;;;17.38;1.85;;;-1.50;99.90;;;;;;5074119;28;20396;-88
2021/01/31 08:19:18;;;;;;;19.80;1.85;;;-1.40;99.90;;;;;;5073378;28;20024;-88
2021/01/31 08:21:59;;;;;;;25.73;2.10;;;-1.30;99.90;;;;;;5073972;28;20086;-88
2021/01/31 08:24:59;;;;;;;20.00;2.28;;;-1.40;99.90;;;;;;5073571;28;20028;-87
2021/01/31 08:27:37;;;;;;;16.63;1.67;;;-1.40;99.90;;;;;;5073607;28;20035;-86
2021/01/31 08:30:32;;;;;;;19.80;1.80;;;-1.30;99.90;;;;;;5067602;28;20506;-87
2021/01/31 08:32:58;;;;;;;24.23;2.00;;;-1.30;99.90;;;;;;5054812;28;20067;-88
2021/01/31 08:35:44;;;;;;;14.45;1.58;;;-1.30;99.90;;;;;;5053170;28;20061;-87
2021/01/31 08:38:24;;;;;;;21.65;1.83;;;-1.30;99.90;;;;;;5042601;28;20037;-87
2021/01/31 08:41:30;;;;;;;4.95;1.45;;;-1.20;99.90;;;;;;5061530;28;20029;-84
2021/01/31 08:44:10;;;;;;;14.65;2.25;;;-1.00;99.90;;;;;;5054933;28;20033;-86
2021/01/31 08:46:53;;;;;;;26.08;3.00;;;-0.90;99.90;;;;;;5072614;28;20025;-86
2021/01/31 08:49:19;;;;;;;19.95;2.38;;;-0.70;99.90;;;;;;5070279;28;20070;-86
2021/01/31 08:52:05;;;;;;;13.55;1.98;;;-0.40;99.90;;;;;;5052101;28;20025;-85
2021/01/31 08:54:31;;;;;;;13.75;1.63;;;-0.40;99.90;;;;;;5053176;28;20024;-85
2021/01/31 08:56:58;;;;;;;16.33;2.75;;;-0.20;99.90;;;;;;5051717;28;20047;-84
2021/01/31 08:59:26;;;;;;;25.02;3.08;;;-0.10;99.90;;;;;;5051503;28;20025;-84
2021/01/31 09:02:13;;;;;;;23.27;3.35;;;0.00;99.90;;;;;;5071317;28;20035;-85
2021/01/31 09:04:43;;;;;;;22.88;2.47;;;0.10;99.90;;;;;;5070750;28;20024;-82
2021/01/31 09:07:10;;;;;;;31.60;2.45;;;0.20;99.90;;;;;;5071710;28;20040;-81
2021/01/31 09:09:38;;;;;;;13.63;2.72;;;0.40;99.90;;;;;;5071188;28;20039;-81
2021/01/31 09:12:12;;;;;;;19.48;4.07;;;0.50;99.90;;;;;;5051593;28;20524;-81
2021/01/31 09:14:42;;;;;;;15.77;3.08;;;0.60;99.90;;;;;;5052585;28;20029;-86
2021/01/31 09:17:11;;;;;;;24.02;2.40;;;0.70;99.90;;;;;;5051831;28;20025;-89
2021/01/31 09:19:38;;;;;;;21.85;2.55;;;0.80;99.90;;;;;;5057034;28;20439;-82
2021/01/31 09:22:05;;;;;;;20.92;2.70;;;0.90;99.90;;;;;;5072535;28;20020;-83
2021/01/31 09:24:37;;;;;;;28.48;2.60;;;1.10;99.90;;;;;;5070812;28;20024;-81
2021/01/31 09:27:06;;;;;;;32.50;3.70;;;1.40;99.90;;;;;;5071126;28;20372;-82
2021/01/31 09:29:33;;;;;;;24.05;2.50;;;1.70;99.90;;;;;;5069115;28;20032;-83
2021/01/31 09:32:17;;;;;;;25.65;2.88;;;2.00;99.90;;;;;;5050944;28;20071;-84
2021/01/31 09:34:44;;;;;;;29.05;3.42;;;2.10;99.90;;;;;;5051981;28;20388;-81
2021/01/31 09:37:20;;;;;;;21.25;3.05;;;2.10;99.90;;;;;;5065442;28;20027;-81
2021/01/31 09:39:47;;;;;;;9.55;2.13;;;2.20;99.90;;;;;;5064933;28;20033;-83
2021/01/31 09:42:14;;;;;;;22.08;2.33;;;2.20;99.90;;;;;;5065826;28;20017;-83
2021/01/31 09:44:43;;;;;;;11.48;2.20;;;2.30;99.90;;;;;;5050571;28;20052;-81
2021/01/31 09:47:09;;;;;;;15.20;2.85;;;2.30;99.90;;;;;;5064392;28;20028;-84
2021/01/31 09:49:35;;;;;;;19.75;2.83;;;2.40;99.90;;;;;;5055767;28;20039;-84
2021/01/31 09:52:10;;;;;;;16.00;2.30;;;2.50;99.90;;;;;;5070726;28;20032;-84
2021/01/31 09:54:36;;;;;;;11.15;2.55;;;2.60;99.90;;;;;;5070384;28;20063;-85
2021/01/31 09:57:24;;;;;;;13.27;2.90;;;2.80;99.90;;;;;;5071878;28;20035;-85
2021/01/31 10:00:10;;;;;;;14.30;2.88;;;2.80;99.90;;;;;;5070353;28;20511;-89
2021/01/31 10:02:37;;;;;;;13.77;2.30;;;2.90;99.90;;;;;;5069978;28;20031;-86
2021/01/31 10:05:06;;;;;;;9.13;2.45;;;2.90;99.90;;;;;;5068941;28;20028;-88
2021/01/31 10:07:42;;;;;;;12.25;2.35;;;2.90;99.90;;;;;;5073213;28;20031;-87
2021/01/31 10:10:23;;;;;;;45.70;5.53;;;2.80;99.90;;;;;;5087625;28;20020;-85
2021/01/31 10:12:48;;;;;;;15.93;2.38;;;2.80;99.90;;;;;;5092446;28;20020;-89
2021/01/31 10:15:38;;;;;;;30.88;3.53;;;2.90;99.90;;;;;;5085481;28;20078;-83
2021/01/31 10:18:09;;;;;;;16.45;1.95;;;3.10;99.90;;;;;;5071445;28;20025;-83
2021/01/31 10:20:37;;;;;;;13.07;2.08;;;3.20;99.90;;;;;;5070335;28;20132;-84
2021/01/31 10:23:06;;;;;;;16.70;2.70;;;3.30;99.90;;;;;;5070286;28;20024;-85
2021/01/31 10:25:40;;;;;;;21.17;3.13;;;3.40;99.90;;;;;;5066179;28;20024;-85
2021/01/31 10:28:12;;;;;;;10.55;2.63;;;3.30;99.90;;;;;;5050431;28;20037;-85
2021/01/31 10:30:48;;;;;;;21.98;2.60;;;3.10;99.90;;;;;;5050833;28;20024;-87
2021/01/31 10:33:43;;;;;;;14.98;1.83;;;3.20;99.90;;;;;;5051797;28;20029;-89
2021/01/31 10:36:15;;;;;;;17.67;2.58;;;3.30;99.90;;;;;;5070403;28;20101;-89
2021/01/31 10:38:44;;;;;;;16.73;2.25;;;3.40;99.90;;;;;;5071630;28;20031;-86
2021/01/31 10:41:11;;;;;;;13.23;2.38;;;3.40;99.90;;;;;;5069810;28;20082;-85
2021/01/31 10:43:37;;;;;;;19.67;2.00;;;3.60;99.90;;;;;;5071056;28;20039;-87
2021/01/31 10:46:03;;;;;;;14.73;1.98;;;3.60;99.90;;;;;;5070302;28;20029;-87
2021/01/31 10:48:29;;;;;;;9.65;1.83;;;3.70;99.90;;;;;;5072378;28;20361;-87
2021/01/31 10:50:55;;;;;;;15.63;2.40;;;3.80;99.90;;;;;;5056691;28;20036;-88
2021/01/31 10:53:20;;;;;;;24.05;2.60;;;3.90;99.90;;;;;;5057538;28;20032;-87
2021/01/31 10:55:46;;;;;;;9.93;2.38;;;4.10;99.90;;;;;;5057849;28;20088;-86
2021/01/31 10:58:12;;;;;;;12.13;1.92;;;4.10;99.90;;;;;;5051382;28;20601;-87
2021/01/31 11:00:38;;;;;;;15.90;2.38;;;4.20;99.90;;;;;;5051129;28;20109;-91
2021/01/31 11:03:04;;;;;;;17.90;2.30;;;4.10;99.90;;;;;;5052871;28;20166;-88
2021/01/31 11:05:30;;;;;;;13.40;2.38;;;4.00;99.90;;;;;;5071927;28;20025;-88
2021/01/31 11:07:55;;;;;;;9.77;2.20;;;4.00;99.90;;;;;;5069972;28;20036;-91
2021/01/31 11:10:21;;;;;;;16.33;1.90;;;4.00;99.90;;;;;;5072637;28;20031;-90
2021/01/31 11:12:47;;;;;;;13.43;1.88;;;3.90;99.90;;;;;;5071437;28;20034;-90
2021/01/31 11:15:14;;;;;;;10.15;1.88;;;3.80;99.90;;;;;;5075007;28;20441;-89
2021/01/31 11:17:40;;;;;;;11.25;2.25;;;3.80;99.90;;;;;;5071925;28;20111;-87
2021/01/31 11:20:07;;;;;;;13.07;1.67;;;3.80;99.90;;;;;;5074820;28;20052;-88
2021/01/31 11:22:33;;;;;;;12.05;1.73;;;3.90;99.90;;;;;;5075098;28;20027;-88
2021/01/31 11:24:59;;;;;;;18.50;1.63;;;3.90;99.90;;;;;;5074367;28;20119;-88
2021/01/31 11:27:24;;;;;;;13.73;2.13;;;4.00;99.90;;;;;;5070700;28;20013;-89
2021/01/31 11:29:50;;;;;;;6.97;1.10;;;4.10;99.90;;;;;;5054546;28;20079;-88
2021/01/31 11:32:15;;;;;;;10.32;1.60;;;4.10;99.90;;;;;;5054312;28;20366;-86
2021/01/31 11:34:41;;;;;;;10.55;1.55;;;4.30;99.90;;;;;;5059136;28;20023;-88
2021/01/31 11:37:07;;;;;;;20.73;1.48;;;4.20;99.90;;;;;;5073829;28;20029;-86
2021/01/31 11:39:32;;;;;;;11.82;1.52;;;4.30;99.90;;;;;;5073031;28;20025;-85
2021/01/31 11:41:59;;;;;;;8.38;1.35;;;4.40;99.90;;;;;;5072982;28;20024;-84
2021/01/31 11:44:25;;;;;;;11.90;1.55;;;4.50;99.90;;;;;;5071987;28;20385;-85
2021/01/31 11:46:50;;;;;;;14.25;1.55;;;4.60;99.90;;;;;;5079927;28;20021;-85
2021/01/31 11:49:16;;;;;;;8.73;1.40;;;4.70;99.90;;;;;;5052775;28;20032;-84
2021/01/31 11:51:42;;;;;;;23.27;2.10;;;4.80;99.90;;;;;;5053005;28;20533;-86
2021/01/31 11:54:08;;;;;;;8.35;1.38;;;5.00;99.90;;;;;;5054038;28;20025;-86
2021/01/31 11:56:35;;;;;;;17.30;2.45;;;5.00;99.90;;;;;;5069064;28;20519;-85
2021/01/31 11:59:01;;;;;;;17.20;1.92;;;5.00;99.90;;;;;;5072858;28;20028;-85
2021/01/31 12:01:26;;;;;;;14.55;1.58;;;4.80;99.90;;;;;;5071624;28;20405;-82
2021/01/31 12:03:52;;;;;;;13.65;1.60;;;4.70;99.90;;;;;;5073547;28;20051;-84
2021/01/31 12:06:17;;;;;;;10.40;2.53;;;4.80;99.90;;;;;;5053824;28;20048;-84
2021/01/31 12:08:43;;;;;;;8.30;1.63;;;4.70;99.90;;;;;;5054119;28;20029;-84
2021/01/31 12:11:09;;;;;;;11.68;1.42;;;4.60;99.90;;;;;;5052472;28;20035;-84
2021/01/31 12:13:34;;;;;;;10.68;1.40;;;4.60;99.90;;;;;;5052447;28;20562;-84
2021/01/31 12:16:00;;;;;;;11.25;1.77;;;4.60;99.90;;;;;;5066586;28;20454;-84
2021/01/31 12:18:26;;;;;;;17.20;2.35;;;4.60;99.90;;;;;;5072318;28;20029;-84
2021/01/31 12:20:52;;;;;;;22.10;2.45;;;4.50;99.90;;;;;;5071902;28;20108;-84
2021/01/31 12:23:17;;;;;;;19.80;2.60;;;4.30;99.90;;;;;;5072217;28;20021;-84
2021/01/31 12:25:43;;;;;;;14.27;2.22;;;4.20;99.90;;;;;;5063611;28;20444;-84
2021/01/31 12:28:08;;;;;;;23.75;2.65;;;4.20;99.90;;;;;;5053315;28;20048;-84
2021/01/31 12:30:34;;;;;;;13.52;1.25;;;4.10;99.90;;;;;;5053671;28;20044;-84
2021/01/31 12:33:02;;;;;;;16.45;2.33;;;4.10;99.90;;;;;;5051887;28;20021;-84
2021/01/31 12:35:29;;;;;;;10.48;2.00;;;4.30;99.90;;;;;;5067268;28;20033;-85
2021/01/31 12:37:56;;;;;;;9.20;2.28;;;4.50;99.90;;;;;;5073678;28;20024;-85
2021/01/31 12:40:23;;;;;;;16.85;1.67;;;4.90;99.90;;;;;;5071996;28;20025;-84
2021/01/31 12:42:49;;;;;;;20.48;1.85;;;5.30;99.90;;;;;;5073357;28;20036;-85
2021/01/31 12:45:16;;;;;;;17.50;2.30;;;5.40;99.90;;;;;;5066103;28;20486;-84
2021/01/31 12:47:42;;;;;;;20.08;1.45;;;5.40;99.90;;;;;;5053281;28;20017;-84
2021/01/31 12:50:08;;;;;;;8.05;1.50;;;5.30;99.90;;;;;;5061521;28;20039;-86
2021/01/31 12:52:37;;;;;;;19.88;1.92;;;5.50;99.90;;;;;;5071630;28;20075;-85
2021/01/31 12:55:05;;;;;;;8.80;1.75;;;5.80;99.90;;;;;;5069863;28;20496;-86
2021/01/31 12:57:31;;;;;;;20.83;2.42;;;6.40;99.90;;;;;;5051587;28;20028;-85
2021/01/31 12:59:57;;;;;;;18.17;2.08;;;6.70;99.90;;;;;;5052891;28;20032;-84
2021/01/31 13:02:23;;;;;;;13.80;1.88;;;6.70;99.90;;;;;;5051341;28;20017;-84
2021/01/31 13:04:49;;;;;;;11.38;1.90;;;6.80;99.90;;;;;;5058412;28;20020;-84
2021/01/31 13:07:14;;;;;;;9.95;1.63;;;6.90;99.90;;;;;;5072571;28;20044;-85
2021/01/31 13:09:40;;;;;;;15.55;1.42;;;6.80;99.90;;;;;;5071456;28;20025;-84
2021/01/31 13:12:05;;;;;;;14.68;1.52;;;7.10;99.90;;;;;;5071381;28;20070;-86
2021/01/31 13:14:31;;;;;;;13.15;1.50;;;7.00;99.90;;;;;;5069870;28;20024;-87
2021/01/31 13:16:57;;;;;;;20.08;2.55;;;6.90;99.90;;;;;;5051403;28;20480;-85